Time;durP1;ratioP1;P1;durP2;ratioP2;P2;SDS_P1;SDS_P2;PMS_P1;PMS_P2;Temp;Humidity;BMP_temperature;BMP_pressure;BME280_temperature;BME280_humidity;BME280_pressure;Samples;Min_cycle;Max_cycle;Signal;HPM_P1;HPM_P2
2023/06/20 00:01:00;;;;;;;10.87;6.70;;;;;;;17.80;100.00;93958.31;5028935;28;20045;-55
2023/06/20 00:03:27;;;;;;;9.27;6.47;;;;;;;17.83;100.00;93954.59;5031851;28;20049;-57
2023/06/20 00:05:53;;;;;;;12.35;7.38;;;;;;;17.98;100.00;93974.22;5031352;28;20053;-58
2023/06/20 00:08:20;;;;;;;14.05;10.13;;;;;;;18.05;100.00;93971.13;5031331;28;20057;-58
2023/06/20 00:10:47;;;;;;;8.38;5.40;;;;;;;18.01;100.00;93976.84;5031260;28;20047;-61
2023/06/20 00:13:17;;;;;;;7.43;4.97;;;;;;;18.13;100.00;93975.94;5031276;28;20033;-59
2023/06/20 00:15:44;;;;;;;7.72;4.80;;;;;;;18.12;100.00;93968.81;5030890;28;20123;-61
2023/06/20 00:18:11;;;;;;;7.32;4.93;;;;;;;17.99;100.00;93970.19;5023356;28;20058;-62
2023/06/20 00:20:38;;;;;;;8.50;4.85;;;;;;;18.03;100.00;93987.47;5027188;28;20042;-58
2023/06/20 00:23:06;;;;;;;7.55;4.95;;;;;;;18.04;100.00;93981.47;5029755;28;20056;-58
2023/06/20 00:25:33;;;;;;;10.93;5.20;;;;;;;18.04;100.00;93978.69;5029051;28;20042;-57
2023/06/20 00:28:02;;;;;;;8.57;5.03;;;;;;;17.87;100.00;93985.81;5018338;28;20057;-55
2023/06/20 00:30:29;;;;;;;7.75;5.10;;;;;;;17.95;100.00;93987.81;5023188;28;20045;-57
2023/06/20 00:32:58;;;;;;;8.75;4.65;;;;;;;17.79;100.00;93985.28;5022667;28;20445;-58
2023/06/20 00:35:25;;;;;;;14.38;9.85;;;;;;;18.09;100.00;93989.19;5025053;28;20742;-64
2023/06/20 00:37:53;;;;;;;8.23;4.70;;;;;;;17.89;100.00;93981.31;5008107;28;20255;-63
2023/06/20 00:40:19;;;;;;;7.22;4.88;;;;;;;17.81;100.00;93991.16;5016879;28;20045;-61
2023/06/20 00:42:47;;;;;;;9.60;5.13;;;;;;;17.64;100.00;93985.09;5030659;28;20041;-60
2023/06/20 00:45:32;;;;;;;8.40;5.03;;;;;;;17.35;100.00;93980.72;5029701;28;20076;-61
2023/06/20 00:48:02;;;;;;;10.35;5.43;;;;;;;17.19;100.00;93988.53;5029614;28;20498;-54
2023/06/20 00:50:31;;;;;;;11.57;5.03;;;;;;;17.52;100.00;93989.53;5030316;28;20050;-58
2023/06/20 00:53:00;;;;;;;8.73;5.40;;;;;;;17.66;100.00;93998.53;5029712;28;20446;-64
2023/06/20 00:55:28;;;;;;;8.05;5.25;;;;;;;17.74;100.00;93983.88;5029531;28;20216;-61
2023/06/20 00:57:59;;;;;;;7.32;5.35;;;;;;;17.14;100.00;93956.63;5029644;28;20056;-61
2023/06/20 01:00:32;;;;;;;10.18;5.60;;;;;;;16.96;100.00;93958.13;5029033;28;20426;-61
2023/06/20 01:03:03;;;;;;;9.23;4.80;;;;;;;16.82;100.00;93955.91;5016099;28;20414;-58
2023/06/20 01:05:31;;;;;;;7.93;4.43;;;;;;;17.08;100.00;93947.34;5028024;28;20213;-58
2023/06/20 01:08:08;;;;;;;6.53;3.75;;;;;;;17.49;100.00;93940.53;5029514;28;20059;-64
2023/06/20 01:10:48;;;;;;;8.02;3.95;;;;;;;17.69;100.00;93931.78;5016912;28;20884;-60
2023/06/20 01:13:53;;;;;;;12.20;4.72;;;;;;;17.67;100.00;93927.94;5028922;28;20054;-63
2023/06/20 01:16:42;;;;;;;7.40;4.37;;;;;;;17.64;100.00;93921.28;5019657;28;20178;-60
2023/06/20 01:19:21;;;;;;;10.43;4.78;;;;;;;17.54;100.00;93908.63;5006573;28;20049;-61
2023/06/20 01:22:03;;;;;;;7.70;4.38;;;;;;;17.71;100.00;93903.56;5029609;28;20453;-57
2023/06/20 01:24:40;;;;;;;10.25;4.78;;;;;;;17.85;100.00;93891.88;5028946;28;20434;-57
2023/06/20 01:27:15;;;;;;;8.50;3.80;;;;;;;17.84;100.00;93865.34;5028587;28;20053;-57
2023/06/20 01:30:03;;;;;;;7.93;3.67;;;;;;;17.79;100.00;93857.59;5025372;28;20058;-61
2023/06/20 01:32:34;;;;;;;9.90;3.80;;;;;;;17.68;100.00;93866.38;5006364;28;20045;-57
2023/06/20 01:35:07;;;;;;;7.35;3.70;;;;;;;17.73;100.00;93867.78;5015572;28;20042;-62
2023/06/20 01:37:37;;;;;;;8.57;4.22;;;;;;;17.53;100.00;93871.78;5008183;28;20394;-57
2023/06/20 01:40:06;;;;;;;8.93;4.15;;;;;;;17.45;100.00;93867.78;5013860;28;20056;-60
2023/06/20 01:42:34;;;;;;;7.17;4.67;;;;;;;17.42;100.00;93871.47;5029423;28;20083;-57
2023/06/20 01:45:04;;;;;;;8.73;4.20;;;;;;;17.31;100.00;93874.69;5029320;28;20046;-58
2023/06/20 01:47:34;;;;;;;9.60;4.68;;;;;;;17.31;100.00;93871.16;5029583;28;20493;-57
2023/06/20 01:50:02;;;;;;;7.45;4.65;;;;;;;17.44;100.00;93849.56;5023080;28;20061;-55
2023/06/20 01:52:30;;;;;;;6.75;4.22;;;;;;;17.56;100.00;93850.66;5023357;28;20069;-60
2023/06/20 01:54:59;;;;;;;7.53;4.10;;;;;;;17.52;100.00;93839.72;5029619;28;20037;-57
2023/06/20 01:57:26;;;;;;;7.75;4.10;;;;;;;17.62;100.00;93837.72;5028419;28;20254;-57
2023/06/20 01:59:54;;;;;;;6.75;4.20;;;;;;;17.65;100.00;93834.03;5029433;28;20055;-58
2023/06/20 02:02:21;;;;;;;6.60;3.70;;;;;;;17.74;100.00;93827.69;5029072;28;20049;-58
2023/06/20 02:04:49;;;;;;;7.32;3.60;;;;;;;17.76;100.00;93830.75;5029157;28;20376;-58
2023/06/20 02:07:17;;;;;;;6.03;3.30;;;;;;;17.65;100.00;93847.91;5028833;28;20344;-61
2023/06/20 02:09:45;;;;;;;6.55;3.40;;;;;;;17.61;100.00;93838.97;5015877;28;20042;-58
2023/06/20 02:12:14;;;;;;;5.95;3.45;;;;;;;17.66;100.00;93832.00;5028776;28;20046;-62
2023/06/20 02:14:42;;;;;;;6.88;3.60;;;;;;;17.54;100.00;93833.72;5029313;28;20409;-57
2023/06/20 02:17:12;;;;;;;6.85;3.80;;;;;;;17.45;100.00;93848.34;5028360;28;20067;-58
2023/06/20 02:19:40;;;;;;;8.33;4.13;;;;;;;17.52;100.00;93856.38;5029219;28;20204;-61
2023/06/20 02:22:11;;;;;;;7.18;4.38;;;;;;;17.46;100.00;93855.44;5027714;28;20403;-58
2023/06/20 02:24:39;;;;;;;7.85;4.70;;;;;;;17.07;100.00;93871.72;5028919;28;20049;-57
2023/06/20 02:27:09;;;;;;;6.90;4.43;;;;;;;17.07;100.00;93873.75;5022619;28;20107;-57
2023/06/20 02:29:38;;;;;;;9.77;5.10;;;;;;;16.92;100.00;93874.31;5017081;28;20038;-57
2023/06/20 02:32:07;;;;;;;9.07;4.70;;;;;;;16.94;100.00;93871.88;5026346;28;20049;-59
2023/06/20 02:34:35;;;;;;;8.18;4.75;;;;;;;17.08;100.00;93881.59;5028791;28;20494;-59
2023/06/20 02:37:05;;;;;;;10.65;5.47;;;;;;;17.18;100.00;93882.38;5010415;28;20049;-55
2023/06/20 02:39:31;;;;;;;9.85;5.18;;;;;;;17.25;100.00;93878.56;5009806;28;20367;-58
2023/06/20 02:41:59;;;;;;;7.80;5.38;;;;;;;17.33;100.00;93871.47;5028775;28;20057;-57
2023/06/20 02:44:26;;;;;;;8.40;4.90;;;;;;;17.34;100.00;93867.44;5019299;28;20062;-57
2023/06/20 02:47:17;;;;;;;6.57;4.80;;;;;;;17.30;100.00;93875.16;5028578;28;20407;-58
2023/06/20 02:50:08;;;;;;;7.15;4.85;;;;;;;17.37;100.00;93872.09;5027747;28;20089;-61
2023/06/20 02:53:27;;;;;;;9.27;5.50;;;;;;;17.15;100.00;93866.66;5026714;28;20041;-57
2023/06/20 02:55:59;;;;;;;8.77;5.97;;;;;;;17.13;100.00;93874.69;4986642;28;20191;-57
2023/06/20 02:58:27;;;;;;;9.83;5.50;;;;;;;17.08;100.00;93876.06;5024426;28;20232;-58
2023/06/20 03:00:58;;;;;;;9.73;6.00;;;;;;;17.09;100.00;93868.50;5028491;28;20126;-58
2023/06/20 03:03:29;;;;;;;9.05;5.05;;;;;;;16.90;100.00;93876.78;5014489;28;20249;-58
2023/06/20 03:05:58;;;;;;;7.10;4.40;;;;;;;16.90;100.00;93865.69;5028184;28;20041;-57
2023/06/20 03:08:28;;;;;;;7.53;4.15;;;;;;;16.93;100.00;93861.22;5024024;28;20925;-57
2023/06/20 03:10:57;;;;;;;6.73;4.40;;;;;;;16.97;100.00;93859.84;5019249;28;20419;-61
2023/06/20 03:13:24;;;;;;;7.05;4.60;;;;;;;17.01;100.00;93853.41;5028328;28;20147;-60
2023/06/20 03:15:51;;;;;;;6.20;4.00;;;;;;;17.01;100.00;93858.94;5028386;28;20045;-57
2023/06/20 03:18:19;;;;;;;5.28;3.70;;;;;;;17.00;100.00;93857.38;5027691;28;20045;-57
2023/06/20 03:20:48;;;;;;;6.25;3.97;;;;;;;16.90;100.00;93853.81;5028535;28;20049;-58
2023/06/20 03:23:15;;;;;;;6.20;3.80;;;;;;;16.91;100.00;93849.81;5027380;28;20510;-57
2023/06/20 03:25:42;;;;;;;6.30;4.00;;;;;;;16.93;100.00;93850.91;5023148;28;20049;-61
2023/06/20 03:28:09;;;;;;;6.35;3.60;;;;;;;17.05;100.00;93848.47;5008017;28;20058;-61
2023/06/20 03:30:36;;;;;;;6.32;4.00;;;;;;;17.08;100.00;93855.84;5022593;28;20034;-60
2023/06/20 03:33:03;;;;;;;6.50;4.13;;;;;;;17.01;100.00;93854.16;5027894;28;20073;-57
2023/06/20 03:35:29;;;;;;;7.20;4.03;;;;;;;17.04;100.00;93856.00;5028360;28;20517;-57
2023/06/20 03:37:56;;;;;;;5.90;4.00;;;;;;;17.06;100.00;93863.88;5013705;28;20137;-57
2023/06/20 03:40:23;;;;;;;7.53;4.13;;;;;;;17.13;100.00;93875.44;5020356;28;20068;-58
2023/06/20 03:42:51;;;;;;;7.00;4.32;;;;;;;17.24;100.00;93877.00;5023221;28;20037;-57
2023/06/20 03:45:17;;;;;;;6.18;4.25;;;;;;;17.28;100.00;93874.84;5027372;28;20045;-60
2023/06/20 03:47:44;;;;;;;6.87;3.90;;;;;;;17.25;100.00;93868.22;5032222;28;20041;-58
2023/06/20 03:50:11;;;;;;;8.35;4.50;;;;;;;17.30;100.00;93869.59;5031171;28;20064;-57
2023/06/20 03:52:38;;;;;;;6.25;4.60;;;;;;;17.39;100.00;93872.41;5019267;28;20030;-57
2023/06/20 03:55:05;;;;;;;5.90;4.25;;;;;;;17.45;100.00;93872.56;5030808;28;20045;-57
2023/06/20 03:57:32;;;;;;;7.07;4.75;;;;;;;17.34;100.00;93879.34;5031849;28;20057;-57
2023/06/20 03:59:59;;;;;;;7.90;5.30;;;;;;;17.24;100.00;93879.78;5031707;28;20061;-57
2023/06/20 04:02:25;;;;;;;9.80;6.50;;;;;;;16.97;100.00;93895.13;5031108;28;21559;-60
2023/06/20 04:04:52;;;;;;;10.52;7.45;;;;;;;16.77;100.00;93890.69;5030239;28;20410;-57
2023/06/20 04:07:19;;;;;;;11.02;8.05;;;;;;;16.71;100.00;93891.75;5031198;28;20409;-57
2023/06/20 04:09:46;;;;;;;11.60;8.73;;;;;;;16.83;100.00;93890.16;5030792;28;20086;-62
2023/06/20 04:12:13;;;;;;;12.07;9.53;;;;;;;16.78;100.00;93886.72;5030501;28;20048;-62
2023/06/20 04:14:40;;;;;;;12.50;8.65;;;;;;;16.97;100.00;93893.09;5031491;28;20073;-57
2023/06/20 04:17:07;;;;;;;15.65;9.20;;;;;;;16.96;100.00;93894.34;5030776;28;20103;-61
2023/06/20 04:19:33;;;;;;;13.20;9.38;;;;;;;17.01;100.00;93895.75;5025935;28;20067;-56
2023/06/20 04:22:00;;;;;;;12.55;9.13;;;;;;;16.88;100.00;93884.00;5030523;28;20067;-55
2023/06/20 04:24:27;;;;;;;13.23;9.87;;;;;;;16.85;100.00;93879.38;5031428;28;20045;-60
2023/06/20 04:26:54;;;;;;;13.60;10.13;;;;;;;16.91;100.00;93877.53;5030913;28;20042;-60
2023/06/20 04:29:21;;;;;;;14.05;9.88;;;;;;;17.05;100.00;93895.59;5029351;28;20064;-58
2023/06/20 04:31:49;;;;;;;14.35;10.35;;;;;;;17.05;100.00;93890.06;5025889;28;20526;-57
2023/06/20 04:34:16;;;;;;;13.38;10.40;;;;;;;17.18;100.00;93893.47;5004786;28;20045;-57
2023/06/20 04:36:42;;;;;;;14.90;10.53;;;;;;;17.27;100.00;93892.72;5030312;28;20037;-57
2023/06/20 04:39:09;;;;;;;15.05;10.90;;;;;;;17.16;100.00;93896.72;5025111;28;20072;-58
2023/06/20 04:41:36;;;;;;;14.50;10.50;;;;;;;17.26;100.00;93888.41;5023540;28;20070;-57
2023/06/20 04:44:02;;;;;;;14.27;10.57;;;;;;;17.43;100.00;93892.44;5030513;28;20038;-58
2023/06/20 04:46:29;;;;;;;15.20;11.00;;;;;;;17.66;100.00;93902.16;5028057;28;20046;-57
2023/06/20 04:48:56;;;;;;;15.00;10.93;;;;;;;17.84;100.00;93886.78;5030771;28;20046;-57
2023/06/20 04:51:23;;;;;;;14.20;10.75;;;;;;;18.10;100.00;93882.41;5029920;28;20045;-57
2023/06/20 04:53:53;;;;;;;15.52;11.07;;;;;;;18.39;100.00;93885.91;5030470;28;20044;-59
2023/06/20 04:56:22;;;;;;;14.45;10.77;;;;;;;18.17;100.00;93876.56;5029635;28;20049;-57
2023/06/20 04:58:48;;;;;;;14.30;10.80;;;;;;;17.91;100.00;93895.56;5030623;28;20049;-60
2023/06/20 05:01:15;;;;;;;15.57;10.80;;;;;;;18.04;100.00;93887.06;5042584;28;20500;-58
2023/06/20 05:03:42;;;;;;;13.25;10.70;;;;;;;18.40;100.00;93882.66;5017396;28;20040;-58
2023/06/20 05:06:17;;;;;;;15.30;10.45;;;;;;;18.87;100.00;93875.72;5020188;28;20083;-62
2023/06/20 05:08:47;;;;;;;13.20;10.25;;;;;;;18.56;100.00;93879.53;5010314;28;20052;-57
2023/06/20 05:11:13;;;;;;;14.75;10.93;;;;;;;18.44;100.00;93888.06;5016544;28;20049;-57
2023/06/20 05:13:40;;;;;;;13.33;10.20;;;;;;;18.36;100.00;93895.97;5029791;28;20041;-61
2023/06/20 05:16:07;;;;;;;12.63;9.80;;;;;;;18.19;100.00;93891.97;5029578;28;20282;-61
2023/06/20 05:18:34;;;;;;;13.38;9.75;;;;;;;18.40;100.00;93887.47;5029781;28;20045;-58
2023/06/20 05:21:01;;;;;;;14.75;10.52;;;;;;;18.43;100.00;93892.88;5029652;28;20048;-58
2023/06/20 05:23:28;;;;;;;14.05;9.98;;;;;;;19.09;100.00;93883.03;5030100;28;20065;-61
2023/06/20 05:25:55;;;;;;;13.87;9.67;;;;;;;21.64;100.00;93867.47;5029323;28;20090;-57
2023/06/20 05:28:21;;;;;;;13.63;8.98;;;;;;;23.20;100.00;93859.53;5019235;28;20402;-58
2023/06/20 05:30:48;;;;;;;11.45;8.85;;;;;;;23.82;100.00;93855.00;5017376;28;20041;-62
2023/06/20 05:33:15;;;;;;;11.73;8.02;;;;;;;24.82;100.00;93852.16;5029640;28;20052;-61
2023/06/20 05:35:44;;;;;;;9.60;7.45;;;;;;;24.43;100.00;93855.69;5029627;28;20053;-59
2023/06/20 05:38:15;;;;;;;10.93;8.10;;;;;;;23.98;100.00;93853.53;5029202;28;20077;-59
2023/06/20 05:40:43;;;;;;;9.10;8.07;;;;;;;23.91;100.00;93857.59;5029086;28;20064;-62
2023/06/20 05:43:09;;;;;;;10.00;7.63;;;;;;;24.58;100.00;93864.66;5027940;28;20056;-59
2023/06/20 05:45:36;;;;;;;9.57;7.50;;;;;;;24.96;100.00;93859.56;5029731;28;20333;-63
2023/06/20 05:48:03;;;;;;;9.15;7.63;;;;;;;24.31;100.00;93854.91;5029151;28;20045;-61
2023/06/20 05:50:30;;;;;;;9.73;8.10;;;;;;;25.38;100.00;93851.34;5029572;28;20071;-58
2023/06/20 05:52:57;;;;;;;11.10;7.75;;;;;;;26.23;98.30;93848.97;5029302;28;20048;-58
2023/06/20 05:55:24;;;;;;;9.23;7.78;;;;;;;26.54;94.35;93856.22;5029015;28;20157;-62
2023/06/20 05:57:51;;;;;;;9.40;7.88;;;;;;;25.53;96.79;93854.63;5028729;28;20051;-59
2023/06/20 06:00:18;;;;;;;9.95;7.65;;;;;;;24.87;100.00;93845.78;5026638;28;20050;-64
2023/06/20 06:02:47;;;;;;;9.60;7.10;;;;;;;26.55;94.02;93843.66;5013297;28;20040;-58
2023/06/20 06:05:14;;;;;;;10.27;7.20;;;;;;;26.63;91.44;93843.88;5029169;28;20055;-59
2023/06/20 06:07:41;;;;;;;10.25;7.70;;;;;;;25.51;100.00;93846.72;5027993;28;20049;-58
2023/06/20 06:10:09;;;;;;;9.88;7.13;;;;;;;27.07;88.11;93853.25;5027446;28;20050;-59
2023/06/20 06:12:36;;;;;;;11.63;7.22;;;;;;;27.16;88.25;93849.31;5026947;28;20049;-59
2023/06/20 06:15:04;;;;;;;9.00;7.40;;;;;;;26.04;94.23;93843.22;5028617;28;20041;-59
2023/06/20 06:17:32;;;;;;;9.55;7.22;;;;;;;26.45;90.53;93846.03;5028737;28;20572;-60
2023/06/20 06:19:58;;;;;;;10.35;7.72;;;;;;;25.97;94.01;93852.19;5029023;28;20128;-64
2023/06/20 06:22:25;;;;;;;8.65;6.70;;;;;;;26.25;93.69;93846.41;5016724;28;20054;-59
2023/06/20 06:24:52;;;;;;;9.60;7.13;;;;;;;28.24;84.52;93844.03;5025168;28;20045;-62
2023/06/20 06:27:19;;;;;;;11.27;7.30;;;;;;;27.02;87.20;93839.97;5025551;28;20087;-59
2023/06/20 06:29:46;;;;;;;10.55;7.15;;;;;;;27.04;87.39;93846.59;5023198;28;20038;-59
2023/06/20 06:32:15;;;;;;;10.68;7.30;;;;;;;26.56;89.25;93836.75;5027503;28;20049;-61
2023/06/20 06:34:42;;;;;;;9.40;7.13;;;;;;;26.75;89.83;93845.31;5028513;28;20041;-58
2023/06/20 06:37:09;;;;;;;9.82;7.03;;;;;;;27.09;87.50;93840.16;5028309;28;20049;-58
2023/06/20 06:39:37;;;;;;;10.07;7.00;;;;;;;27.73;83.98;93839.03;5026649;28;20042;-62
2023/06/20 06:42:04;;;;;;;10.13;6.90;;;;;;;26.64;86.68;93842.59;5018225;28;20041;-58
2023/06/20 06:44:31;;;;;;;9.00;6.70;;;;;;;26.40;89.08;93841.22;5044121;28;20059;-61
2023/06/20 06:46:58;;;;;;;8.98;6.75;;;;;;;26.20;90.34;93845.16;5029145;28;20164;-58
2023/06/20 06:49:26;;;;;;;10.25;6.85;;;;;;;25.49;94.63;93835.25;5028538;28;20043;-58
2023/06/20 06:51:53;;;;;;;9.07;6.40;;;;;;;25.07;98.90;93836.31;5028484;28;20245;-58
2023/06/20 06:54:20;;;;;;;9.63;7.00;;;;;;;26.46;91.84;93832.72;5015232;28;21851;-59
2023/06/20 06:56:47;;;;;;;9.35;7.15;;;;;;;26.00;94.95;93837.88;5028690;28;20037;-64
2023/06/20 06:59:13;;;;;;;11.32;7.10;;;;;;;26.02;95.02;93838.09;5028421;28;20049;-59
2023/06/20 07:01:40;;;;;;;11.13;7.32;;;;;;;26.13;94.21;93839.31;5002254;28;20058;-57
2023/06/20 07:04:07;;;;;;;9.93;7.20;;;;;;;27.07;89.91;93827.91;5011610;28;20045;-57
2023/06/20 07:06:34;;;;;;;10.43;7.03;;;;;;;26.85;89.18;93826.06;5028626;28;20045;-60
2023/06/20 07:09:00;;;;;;;9.90;6.85;;;;;;;27.86;83.61;93827.06;5029008;28;20041;-55
2023/06/20 07:11:27;;;;;;;9.52;6.30;;;;;;;27.49;83.75;93837.00;5032867;28;20043;-58
2023/06/20 07:13:54;;;;;;;12.23;6.60;;;;;;;26.09;91.37;93837.53;5030922;28;20037;-61
2023/06/20 07:16:20;;;;;;;10.93;6.23;;;;;;;27.59;86.64;93840.97;5032182;28;20552;-57
2023/06/20 07:18:48;;;;;;;9.57;6.57;;;;;;;27.61;81.56;93841.22;5032123;28;20063;-58
2023/06/20 07:21:16;;;;;;;10.63;6.80;;;;;;;25.71;91.65;93834.38;5032210;28;20426;-58
2023/06/20 07:23:43;;;;;;;8.25;6.18;;;;;;;25.55;92.49;93832.38;5032339;28;20448;-58
2023/06/20 07:26:10;;;;;;;10.15;6.28;;;;;;;26.14;92.19;93821.94;5031880;28;20041;-63
2023/06/20 07:28:37;;;;;;;9.90;6.17;;;;;;;27.15;88.31;93830.91;5019584;28;20233;-59
2023/06/20 07:31:03;;;;;;;9.30;6.32;;;;;;;27.41;82.01;93824.78;5023990;28;20041;-56
2023/06/20 07:33:30;;;;;;;10.68;5.88;;;;;;;28.73;74.92;93817.69;5032583;28;20042;-57
2023/06/20 07:35:59;;;;;;;11.30;5.95;;;;;;;31.05;64.75;93818.16;5032353;28;20076;-64
2023/06/20 07:38:26;;;;;;;10.48;5.90;;;;;;;31.33;62.42;93819.53;5018093;28;20561;-58
2023/06/20 07:40:53;;;;;;;8.03;5.30;;;;;;;31.69;59.78;93810.31;5032189;28;20057;-61
2023/06/20 07:43:24;;;;;;;8.55;5.40;;;;;;;31.89;58.52;93810.81;5026713;28;20060;-58
2023/06/20 07:45:54;;;;;;;10.63;4.95;;;;;;;33.42;51.11;93801.91;5025588;28;20462;-57
2023/06/20 07:48:25;;;;;;;7.65;4.57;;;;;;;33.49;49.75;93804.00;5031556;28;20057;-58
2023/06/20 07:50:51;;;;;;;9.07;5.03;;;;;;;31.30;56.65;93805.69;5032273;28;20046;-57
2023/06/20 07:53:18;;;;;;;8.00;4.40;;;;;;;31.80;53.33;93801.50;5025968;28;20050;-57
2023/06/20 07:55:45;;;;;;;8.38;4.70;;;;;;;30.86;55.82;93806.25;5023275;28;20045;-59
2023/06/20 07:58:12;;;;;;;7.93;4.93;;;;;;;32.06;53.63;93808.28;5031392;28;20037;-58
2023/06/20 08:00:40;;;;;;;8.63;4.80;;;;;;;31.71;52.64;93806.94;5032030;28;20041;-62
2023/06/20 08:03:07;;;;;;;8.55;5.07;;;;;;;32.25;51.55;93799.44;5031533;28;20045;-62
2023/06/20 08:05:34;;;;;;;8.83;4.70;;;;;;;31.47;53.50;93796.75;5031808;28;20049;-58
2023/06/20 08:08:00;;;;;;;8.35;4.80;;;;;;;33.22;49.53;93798.72;5031262;28;20041;-54
2023/06/20 08:10:27;;;;;;;8.02;4.50;;;;;;;33.76;47.12;93797.91;5030379;28;20042;-58
2023/06/20 08:12:54;;;;;;;8.38;4.57;;;;;;;33.82;46.10;93793.53;5032076;28;20056;-61
2023/06/20 08:15:21;;;;;;;7.00;4.38;;;;;;;34.92;42.57;93789.63;5018074;28;20118;-58
2023/06/20 08:17:48;;;;;;;6.63;4.40;;;;;;;33.54;44.85;93785.97;5030178;28;20041;-62
2023/06/20 08:20:15;;;;;;;7.63;4.38;;;;;;;32.64;47.64;93781.22;5030726;28;20379;-58
2023/06/20 08:22:41;;;;;;;7.43;4.30;;;;;;;32.00;48.26;93791.41;5031633;28;20048;-57
2023/06/20 08:25:08;;;;;;;7.88;4.55;;;;;;;31.93;49.15;93785.66;5029584;28;20138;-64
2023/06/20 08:27:35;;;;;;;8.93;4.22;;;;;;;32.12;49.59;93782.56;5023702;28;20047;-58
2023/06/20 08:30:03;;;;;;;6.83;3.70;;;;;;;32.43;47.30;93784.16;5015482;28;20417;-62
2023/06/20 08:32:29;;;;;;;7.20;4.05;;;;;;;34.32;41.98;93773.06;5031190;28;20071;-59
2023/06/20 08:34:56;;;;;;;7.60;3.97;;;;;;;33.30;43.51;93770.25;5031542;28;20114;-57
2023/06/20 08:37:23;;;;;;;7.03;3.90;;;;;;;32.95;45.03;93763.44;5020271;28;20042;-58
2023/06/20 08:39:50;;;;;;;6.97;4.13;;;;;;;33.28;44.93;93761.53;5011400;28;20061;-59
2023/06/20 08:42:17;;;;;;;7.20;3.90;;;;;;;35.49;40.31;93760.25;5029377;28;20120;-58
2023/06/20 08:44:43;;;;;;;7.53;3.78;;;;;;;33.98;41.82;93754.38;5030664;28;20049;-61
2023/06/20 08:47:24;;;;;;;6.93;3.97;;;;;;;32.95;43.97;93752.06;5030658;28;20370;-63
2023/06/20 08:49:51;;;;;;;7.78;4.00;;;;;;;34.74;41.01;93752.50;5030997;28;20048;-61
2023/06/20 08:52:23;;;;;;;8.02;3.90;;;;;;;35.03;39.57;93757.03;5029996;28;20056;-59
2023/06/20 08:54:52;;;;;;;9.77;3.97;;;;;;;35.12;39.44;93747.84;5017891;28;20050;-58
2023/06/20 08:57:20;;;;;;;7.10;4.05;;;;;;;33.89;41.46;93755.00;5030244;28;20390;-58
2023/06/20 08:59:48;;;;;;;8.48;3.80;;;;;;;34.51;39.95;93746.16;5031044;28;20332;-59
2023/06/20 09:02:16;;;;;;;6.72;4.10;;;;;;;35.51;38.13;93749.03;5028557;28;20049;-59
2023/06/20 09:04:42;;;;;;;8.57;4.45;;;;;;;33.39;42.33;93746.19;5030562;28;20071;-65
2023/06/20 09:07:21;;;;;;;8.67;4.43;;;;;;;32.92;42.61;93742.59;5028739;28;20056;-60
2023/06/20 09:09:48;;;;;;;7.95;4.13;;;;;;;34.99;39.83;93740.34;5030680;28;20057;-61
2023/06/20 09:12:15;;;;;;;7.40;4.30;;;;;;;33.56;41.49;93745.56;5028680;28;20045;-65
2023/06/20 09:14:42;;;;;;;8.55;4.20;;;;;;;34.08;39.38;93734.59;5030593;28;20041;-61
2023/06/20 09:17:09;;;;;;;8.45;4.43;;;;;;;34.76;38.75;93734.81;5030037;28;20049;-58
2023/06/20 09:19:43;;;;;;;6.27;4.17;;;;;;;34.71;37.38;93727.25;5030561;28;20048;-58
2023/06/20 09:22:14;;;;;;;10.05;4.13;;;;;;;34.18;37.48;93726.97;5029565;28;20048;-59
2023/06/20 09:24:42;;;;;;;8.40;4.50;;;;;;;34.91;38.12;93722.53;5016872;28;20050;-59
2023/06/20 09:27:09;;;;;;;7.63;4.50;;;;;;;36.28;35.78;93731.06;5008914;28;20147;-61
2023/06/20 09:29:51;;;;;;;7.07;4.47;;;;;;;36.70;34.53;93727.22;5014960;28;20048;-59
2023/06/20 09:32:22;;;;;;;7.37;4.33;;;;;;;36.80;30.73;93721.56;5029090;28;20056;-58
2023/06/20 09:34:50;;;;;;;7.78;4.32;;;;;;;37.33;29.35;93716.34;5030050;28;20095;-63
2023/06/20 09:37:17;;;;;;;6.22;3.90;;;;;;;37.10;26.76;93713.84;5029500;28;20042;-59
2023/06/20 09:39:44;;;;;;;7.07;3.97;;;;;;;37.58;25.71;93713.97;5030451;28;20067;-58
2023/06/20 09:42:14;;;;;;;6.72;4.03;;;;;;;38.26;23.94;93716.09;5029247;28;20045;-59
2023/06/20 09:44:41;;;;;;;8.27;4.07;;;;;;;38.43;23.70;93709.41;5045110;28;20380;-58
2023/06/20 09:47:08;;;;;;;6.90;4.18;;;;;;;36.57;26.07;93721.91;5029284;28;20505;-58
2023/06/20 09:49:39;;;;;;;8.27;4.50;;;;;;;35.32;28.70;93708.91;5029598;28;20489;-58
2023/06/20 09:52:14;;;;;;;8.32;4.20;;;;;;;34.87;28.76;93714.38;5029284;28;20049;-58
2023/06/20 09:54:56;;;;;;;8.43;4.60;;;;;;;33.86;30.03;93707.75;5001438;28;20102;-58
2023/06/20 09:57:33;;;;;;;6.60;4.20;;;;;;;35.35;28.63;93707.72;5028897;28;20049;-63
2023/06/20 10:00:01;;;;;;;7.20;4.28;;;;;;;35.38;27.54;93709.41;5029894;28;20057;-57
2023/06/20 10:02:29;;;;;;;7.70;4.30;;;;;;;35.95;26.11;93705.53;5028674;28;20613;-58
2023/06/20 10:04:58;;;;;;;7.07;4.47;;;;;;;36.62;26.27;93711.53;5029198;28;20046;-58
2023/06/20 10:07:26;;;;;;;6.78;3.78;;;;;;;37.40;25.25;93701.13;5029107;28;20118;-62
2023/06/20 10:09:54;;;;;;;7.57;4.30;;;;;;;34.34;27.56;93699.16;5029302;28;20052;-58
2023/06/20 10:12:21;;;;;;;6.65;4.10;;;;;;;34.52;28.38;93710.66;5028793;28;20067;-58
2023/06/20 10:14:49;;;;;;;7.50;4.50;;;;;;;35.05;27.91;93712.34;5029248;28;20064;-58
2023/06/20 10:17:35;;;;;;;8.40;4.60;;;;;;;35.89;27.35;93701.44;5019156;28;20046;-60
2023/06/20 10:20:08;;;;;;;8.57;4.60;;;;;;;36.92;26.37;93701.75;5027740;28;20399;-63
2023/06/20 10:22:42;;;;;;;7.13;4.40;;;;;;;37.73;24.57;93701.50;5029042;28;20070;-58
2023/06/20 10:25:14;;;;;;;6.10;4.25;;;;;;;38.41;23.97;93691.31;5028040;28;20211;-59
2023/06/20 10:27:44;;;;;;;9.73;4.32;;;;;;;39.14;23.18;93682.16;5028717;28;20435;-58
2023/06/20 10:30:13;;;;;;;8.45;4.18;;;;;;;38.79;22.80;93692.56;5026507;28;20046;-61
2023/06/20 10:33:08;;;;;;;8.90;4.60;;;;;;;38.06;24.04;93694.56;5028852;28;20050;-65
2023/06/20 10:35:46;;;;;;;7.60;4.23;;;;;;;35.58;25.63;93691.13;5023394;28;20683;-63
2023/06/20 10:38:13;;;;;;;8.35;4.50;;;;;;;36.16;24.26;93690.06;5013630;28;20045;-59
2023/06/20 10:40:40;;;;;;;8.05;4.95;;;;;;;34.40;27.61;93682.59;5025269;28;20055;-57
2023/06/20 10:43:08;;;;;;;7.85;4.70;;;;;;;34.26;27.75;93692.75;5027108;28;20064;-58
2023/06/20 10:45:35;;;;;;;10.68;4.85;;;;;;;33.00;29.42;93686.50;5028551;28;20064;-58
2023/06/20 10:48:03;;;;;;;10.27;5.07;;;;;;;32.38;30.73;93682.88;5028399;28;20037;-58
2023/06/20 10:50:30;;;;;;;9.60;4.90;;;;;;;33.26;30.33;93678.13;5028779;28;20049;-58
2023/06/20 10:52:58;;;;;;;8.02;4.85;;;;;;;34.17;29.46;93679.91;5028527;28;20107;-58
2023/06/20 10:55:27;;;;;;;7.85;4.90;;;;;;;34.16;29.46;93683.31;5020095;28;20038;-59
2023/06/20 10:57:55;;;;;;;13.55;5.80;;;;;;;33.29;29.69;93679.84;5024150;28;20051;-59
2023/06/20 11:00:23;;;;;;;11.60;5.23;;;;;;;34.68;28.67;93665.72;5028600;28;20512;-62
2023/06/20 11:02:54;;;;;;;9.07;5.05;;;;;;;34.82;28.57;93678.34;5028852;28;20045;-58
2023/06/20 11:05:26;;;;;;;7.82;5.25;;;;;;;35.25;27.42;93669.78;5028252;28;20474;-58
2023/06/20 11:08:03;;;;;;;7.18;5.18;;;;;;;35.13;27.49;93669.50;5028543;28;20034;-57
2023/06/20 11:10:35;;;;;;;10.13;5.30;;;;;;;34.13;29.20;93659.59;5027589;28;20736;-58
2023/06/20 11:13:03;;;;;;;7.97;5.00;;;;;;;35.17;27.56;93667.75;5028107;28;20049;-58
2023/06/20 11:15:32;;;;;;;7.75;4.90;;;;;;;35.48;27.78;93667.44;5027999;28;20186;-65
2023/06/20 11:18:06;;;;;;;7.55;5.10;;;;;;;36.06;26.72;93658.56;5027074;28;20056;-58
2023/06/20 11:20:39;;;;;;;8.85;5.05;;;;;;;34.29;29.11;93651.72;5001624;28;20037;-59
2023/06/20 11:23:08;;;;;;;10.38;5.38;;;;;;;32.23;31.75;93663.72;5027231;28;20054;-59
2023/06/20 11:25:36;;;;;;;10.00;5.43;;;;;;;30.26;34.57;93669.94;5028294;28;20367;-63
2023/06/20 11:28:04;;;;;;;12.25;5.53;;;;;;;31.30;33.43;93667.53;5026180;28;20059;-65
2023/06/20 11:30:32;;;;;;;8.75;5.43;;;;;;;31.47;33.19;93660.63;5024358;28;20063;-60
2023/06/20 11:33:10;;;;;;;10.75;5.50;;;;;;;30.93;33.65;93654.63;5027134;28;20163;-61
2023/06/20 11:35:44;;;;;;;10.95;5.75;;;;;;;31.94;32.31;93654.56;5027557;28;20893;-58